Portada
METAR-TAF:

METAR-TAF

Aeroports :

Náměšť nad Oslavou, República Txeca

latitud: 49-09-57N, longitud: 16-07-30E, altitud: 472 m

Observació

L'informe es va fer fa 41 minuts, a les 01:30 UTC
Vent 4 kt del Nord-Oest
Temperatura 17°C
Humitat 63%
Pressió 1018 hPa
Visibilitat 10 km o més
sense núvols per sota de 1500 mi sense presència de cumulonimbus.

METAR: LKNA 160130Z 32004KT CAVOK 17/10 Q1018 RMK BLU

Hora: 04:11 (02:11 UTC)

Pronòstic

L'informe es va fer fa 3 hores i 11 minuts, a les 23:00 UTC
Pronòstic vàlid del 16 a les 00 UTC al 17 a les 00 UTC
Vent 2 kt amb direcció variable
Visibilitat 10 km o més
sense núvols per sota de 1500 mi sense presència de cumulonimbus.
Evolucionant progressivament
l' 16 a les 06 UTC al 16 a les 08 UTC
Vent 7 kt del Sud/Sud-Est
Evolucionant progressivament
l' 16 a les 17 UTC al 16 a les 19 UTC
Vent 4 kt del Est

TAF: LKNA 152300Z 1600/1700 VRB02KT CAVOK BECMG 1606/1608 15007KT BECMG 1617/1619 10004KT

Observacions i pronòstics meteorològics de més de 4000 aeroports (METAR i TAF).

Les estacions disponibles són els punts grocs i vermells al mapa.

Posi el ratolí al punt desitjat per veure el nom de l'estació.

Feu clic per veure les observacions i els pronòstics meteorològics.

Per canviar el mapa: feu clic els botons verds amb una creu de color negre per apropar; al botó verd amb un guió per allunyar la imatge; o en les fletxes verdes per a mapes adjacents.


METAR-TAF: